Aeroporto :
LOGIN :

Iscrizione | Disclaimer

   EN    FR    IT 

 










Sommario :    VFR   VFR Marginale   IFR   IFR Intensivo   IFR Molto Intensivo
Visibilità : 
Base nubi : 
>= 8 km
>= 3000ft
5 / 8 km
1000 / 3000 ft
1500m / 5 km
500 / 1000 ft
800 / 1500m
200 / 500 ft
< 800m
< 200 ft
Simboli :   Temporali  Nebbia  Neve Forte  Precipitazioni Forti  Vento > 20 kt
SIGMETs :   Varie  Temporali  Ghiacco  Turbolenza  Onda orograficha  Ceneri Vulcaniche






- Altitudine del aeroporto : 1036 ft
- Codice IATA : ERF


EDDE - Erfurt

ULTIMO METAR :
  • 290420Z AUTO 18009KT CAVOK 13/07 Q1014 NOSIG

METARs OBSOLETI :
  • 290350Z AUTO 18009KT CAVOK 13/07 Q1015 NOSIG
  • 290320Z AUTO 19008KT 9999 FEW045 13/07 Q1015
  • 290250Z AUTO 19007KT CAVOK 13/07 Q1015
  • 290220Z AUTO 18009KT 9999 FEW042 13/07 Q1015
  • 290150Z AUTO 18007KT 9999 FEW037 13/07 Q1016
  • 290120Z AUTO 18007KT CAVOK 12/07 Q1016
  • 290050Z AUTO 19008KT CAVOK 12/06 Q1016
  • 290020Z AUTO 19008KT CAVOK 12/06 Q1016
  • 282350Z AUTO 18008KT CAVOK 12/06 Q1017

TAF TAF EDDE
Valido dal 29 a 00 ore il 30 a 00 ore UTC


282300Z 2900/2924 18004KT CAVOK
BECMG 2908/2910 20009KT
PROB40
TEMPO 2911/2919 SHRA BKN030TCU
BECMG 2915/2917 18004KT



MetMap, La meteo Aeronautica in un colpo d'occhio ! - Copyright ORBIFLY Dicembre 2007 - Disclaimer

ORBIFLY MET'MAP TEAM :

Programmazione e sviluppo : Alexandra Zaïnal
Concezione : Baudouin d'Aumeries
Supporto tecnico e logistico : Manuel Goepfert
Aiuto : Marc-Olivier Méhu
Aiuto per la traduzione : Arnaldo La Scala




FONTI E CREDITI :

   NOAA